Time;durP1;ratioP1;P1;durP2;ratioP2;P2;SDS_P1;SDS_P2;PMS_P1;PMS_P2;Temp;Humidity;BMP_temperature;BMP_pressure;BME280_temperature;BME280_humidity;BME280_pressure;Samples;Min_cycle;Max_cycle;Signal;HPM_P1;HPM_P2
2023/01/23 00:00:55;;;;;;;10.40;4.10;;;;;;;0.87;74.20;100908.17;78943;1299;3013114;-63
2023/01/23 00:03:22;;;;;;;10.30;4.50;;;;;;;0.92;73.83;100909.05;79395;1294;3013735;-63
2023/01/23 00:05:56;;;;;;;10.90;4.70;;;;;;;1.00;73.55;100911.13;79354;1294;3013651;-63
2023/01/23 00:08:24;;;;;;;9.90;4.60;;;;;;;0.99;73.37;100912.00;78184;1301;3052911;-63
2023/01/23 00:10:51;;;;;;;9.30;4.10;;;;;;;1.06;73.46;100908.04;79337;1299;3014772;-62
2023/01/23 00:13:23;;;;;;;10.50;4.60;;;;;;;1.01;72.81;100910.27;78271;1299;3051088;-64
2023/01/23 00:15:51;;;;;;;10.20;5.10;;;;;;;0.90;73.31;100910.26;79332;1294;3013497;-63
2023/01/23 00:18:18;;;;;;;10.90;5.00;;;;;;;0.85;73.41;100913.18;79270;1298;3011810;-63
2023/01/23 00:20:45;;;;;;;9.10;4.60;;;;;;;0.84;73.30;100915.95;78059;1301;3049528;-64
2023/01/23 00:23:12;;;;;;;9.40;4.00;;;;;;;0.80;73.27;100918.34;79341;1294;3020833;-64
2023/01/23 00:25:39;;;;;;;11.90;4.80;;;;;;;0.74;72.98;100920.91;79322;1295;3011634;-63
2023/01/23 00:28:07;;;;;;;6.40;3.90;;;;;;;0.77;73.28;100923.84;78122;1299;3026706;-63
2023/01/23 00:30:34;;;;;;;8.90;4.40;;;;;;;0.81;73.22;100932.48;79364;1298;3013332;-63
2023/01/23 00:33:00;;;;;;;9.60;4.10;;;;;;;0.88;72.57;100930.61;79216;1295;3011651;-62
2023/01/23 00:35:28;;;;;;;11.30;4.40;;;;;;;0.92;72.24;100931.30;77986;1300;3028681;-63
2023/01/23 00:37:55;;;;;;;7.90;4.40;;;;;;;0.86;72.26;100928.53;79329;1300;3013786;-63
2023/01/23 00:40:21;;;;;;;10.30;4.30;;;;;;;0.76;72.45;100927.82;79261;1299;3013588;-63
2023/01/23 00:42:50;;;;;;;11.60;4.30;;;;;;;0.77;72.75;100928.52;78154;1299;3052223;-62
2023/01/23 00:45:17;;;;;;;8.20;4.00;;;;;;;0.73;72.35;100928.84;79309;1294;3012882;-63
2023/01/23 00:47:45;;;;;;;10.40;4.20;;;;;;;0.69;72.48;100923.13;79353;1298;3011738;-64
2023/01/23 00:50:13;;;;;;;7.50;3.50;;;;;;;0.78;72.51;100927.48;78234;1307;3049268;-64
2023/01/23 00:52:40;;;;;;;8.90;4.30;;;;;;;0.76;72.47;100926.95;79446;1299;3013124;-63
2023/01/23 00:55:07;;;;;;;10.40;4.10;;;;;;;0.67;72.21;100923.48;79319;1299;3013657;-63
2023/01/23 00:57:36;;;;;;;8.50;4.20;;;;;;;0.62;72.23;100924.99;78167;1301;3052150;-63
2023/01/23 01:00:03;;;;;;;11.20;4.20;;;;;;;0.69;72.32;100920.20;79234;1294;3013361;-63
2023/01/23 01:02:30;;;;;;;10.50;4.40;;;;;;;0.68;71.99;100918.48;79351;1295;3013450;-63
2023/01/23 01:04:59;;;;;;;7.60;4.30;;;;;;;0.70;72.12;100918.83;78094;1308;3050378;-64
2023/01/23 01:07:31;;;;;;;11.30;4.40;;;;;;;0.70;71.51;100921.07;79306;1294;3011871;-63
2023/01/23 01:09:59;;;;;;;9.30;4.30;;;;;;;0.67;71.79;100918.65;78148;1299;3051629;-64
2023/01/23 01:12:26;;;;;;;10.80;3.90;;;;;;;0.76;71.86;100917.46;79465;1299;3012984;-64
2023/01/23 01:14:53;;;;;;;10.10;4.80;;;;;;;0.76;71.21;100916.60;79329;1295;3013079;-63
2023/01/23 01:17:21;;;;;;;9.40;4.20;;;;;;;0.86;71.27;100919.56;78191;1298;3027355;-64
2023/01/23 01:19:48;;;;;;;8.10;3.80;;;;;;;0.77;71.00;100921.42;79279;1302;3013315;-62
2023/01/23 01:22:15;;;;;;;10.50;3.70;;;;;;;0.78;71.17;100920.06;79297;1299;3011709;-63
2023/01/23 01:24:43;;;;;;;7.40;3.50;;;;;;;0.80;71.14;100922.30;78249;1301;3026452;-63
2023/01/23 01:27:09;;;;;;;7.90;4.00;;;;;;;0.81;70.88;100924.39;79366;1308;3013656;-63
2023/01/23 01:29:36;;;;;;;10.70;3.60;;;;;;;0.81;71.14;100921.79;79293;1298;3013285;-63
2023/01/23 01:32:05;;;;;;;10.80;3.30;;;;;;;0.89;70.85;100919.74;78177;1299;3049681;-63
2023/01/23 01:34:32;;;;;;;11.20;4.60;;;;;;;0.92;70.67;100921.98;79364;1298;3018726;-63
2023/01/23 01:36:59;;;;;;;7.80;3.90;;;;;;;0.93;70.31;100921.30;79320;1296;3012564;-63
2023/01/23 01:39:27;;;;;;;8.50;3.40;;;;;;;0.97;70.15;100922.18;78109;1299;3026994;-62
2023/01/23 01:41:53;;;;;;;9.00;4.50;;;;;;;0.97;69.87;100919.40;79419;1300;3013473;-64
2023/01/23 01:44:21;;;;;;;16.80;3.80;;;;;;;0.90;69.97;100919.23;79289;1299;3013195;-63
2023/01/23 01:46:49;;;;;;;11.80;3.80;;;;;;;0.96;70.37;100915.10;78040;1301;3049660;-63
2023/01/23 01:49:22;;;;;;;9.70;4.00;;;;;;;0.99;69.89;100910.95;79364;1301;3013283;-64
2023/01/23 01:52:00;;;;;;;9.50;3.70;;;;;;;0.99;69.49;100909.59;78172;1300;3053726;-64
2023/01/23 01:54:30;;;;;;;14.50;3.60;;;;;;;0.96;69.29;100912.86;78077;1303;3052278;-64
2023/01/23 01:56:59;;;;;;;7.10;3.30;;;;;;;0.96;69.44;100907.84;79298;1301;3013739;-64
2023/01/23 01:59:29;;;;;;;7.30;3.60;;;;;;;1.00;69.17;100906.30;78022;1310;3052114;-64
2023/01/23 02:02:03;;;;;;;7.70;3.30;;;;;;;1.00;69.41;100906.83;79385;1295;3011605;-63
2023/01/23 02:04:33;;;;;;;7.70;3.80;;;;;;;1.05;69.16;100905.27;77956;1300;3050470;-63
2023/01/23 02:07:00;;;;;;;5.80;3.10;;;;;;;1.01;68.73;100906.30;79412;1296;3014674;-62
2023/01/23 02:09:26;;;;;;;10.90;4.60;;;;;;;1.04;68.95;100906.30;79353;1300;3011954;-63
2023/01/23 02:11:54;;;;;;;8.10;3.30;;;;;;;1.04;68.68;100900.45;78057;1300;3052052;-63
2023/01/23 02:14:24;;;;;;;10.20;3.40;;;;;;;1.04;68.72;100899.58;79339;1299;3013023;-63
2023/01/23 02:16:58;;;;;;;6.90;3.60;;;;;;;1.09;68.83;100900.96;78834;1298;3011529;-63
2023/01/23 02:19:33;;;;;;;8.50;3.50;;;;;;;1.06;68.63;100898.54;79220;1296;3011659;-62
2023/01/23 02:22:08;;;;;;;7.60;3.60;;;;;;;0.96;68.10;100906.30;78130;1299;3049791;-63
2023/01/23 02:24:38;;;;;;;7.90;3.10;;;;;;;0.97;68.66;100907.32;79299;1295;3011873;-63
2023/01/23 02:27:06;;;;;;;10.40;3.80;;;;;;;1.01;68.62;100903.19;78101;1300;3050353;-63
2023/01/23 02:29:41;;;;;;;6.80;3.50;;;;;;;0.91;68.88;100905.77;79264;1305;3018517;-62
2023/01/23 02:32:09;;;;;;;8.00;2.90;;;;;;;1.11;68.92;100906.67;78048;1295;3067104;-63
2023/01/23 02:34:36;;;;;;;7.00;2.80;;;;;;;1.18;68.07;100905.46;79218;1300;3013609;-63
2023/01/23 02:37:04;;;;;;;10.00;3.40;;;;;;;1.19;67.95;100906.85;79257;1294;3011836;-63
2023/01/23 02:39:32;;;;;;;12.40;3.10;;;;;;;1.08;67.89;100908.05;78118;1299;3053961;-63
2023/01/23 02:41:59;;;;;;;6.40;3.40;;;;;;;0.94;68.05;100906.80;79289;1299;3012989;-65
2023/01/23 02:44:39;;;;;;;8.10;2.70;;;;;;;1.01;68.36;100902.85;78035;1300;3051437;-63
2023/01/23 02:47:10;;;;;;;6.60;3.20;;;;;;;1.11;68.26;100904.59;79384;1294;3013503;-63
2023/01/23 02:49:39;;;;;;;6.50;3.20;;;;;;;1.13;68.20;100905.63;78084;1300;3058450;-63
2023/01/23 02:52:06;;;;;;;7.30;2.90;;;;;;;1.18;67.85;100910.83;79468;1297;3013278;-63
2023/01/23 02:54:38;;;;;;;7.80;2.70;;;;;;;1.14;67.54;100915.82;78796;1298;3012729;-63
2023/01/23 02:57:05;;;;;;;5.40;2.70;;;;;;;1.14;67.45;100915.64;79348;1299;3013029;-63
2023/01/23 03:02:21;;;;;;;6.50;3.10;;;;;;;1.06;67.45;100920.30;78141;1301;3052591;-64
2023/01/23 03:04:48;;;;;;;7.40;3.10;;;;;;;0.99;67.52;100919.76;79308;1298;3014087;-63
2023/01/23 03:07:15;;;;;;;4.40;2.60;;;;;;;1.07;67.75;100914.77;79286;1299;3013118;-62
2023/01/23 03:09:46;;;;;;;5.60;2.40;;;;;;;1.15;67.77;100915.81;78085;1299;3028548;-63
2023/01/23 03:12:14;;;;;;;5.40;2.40;;;;;;;1.16;67.33;100918.41;79274;1294;3013001;-63
2023/01/23 03:14:42;;;;;;;7.20;2.60;;;;;;;1.17;67.31;100912.88;78024;1297;3049756;-62
2023/01/23 03:17:09;;;;;;;6.40;2.50;;;;;;;1.08;67.11;100915.81;79293;1299;3013414;-63
2023/01/23 03:19:37;;;;;;;6.80;2.80;;;;;;;1.05;67.37;100909.08;79201;1299;3011629;-62
2023/01/23 03:22:06;;;;;;;5.60;2.90;;;;;;;1.09;67.32;100911.84;77988;1300;3052078;-63
2023/01/23 03:24:33;;;;;;;5.50;2.50;;;;;;;1.02;67.36;100916.50;79234;1300;3018756;-62
2023/01/23 03:27:00;;;;;;;9.70;3.00;;;;;;;1.00;67.64;100918.21;79245;1298;3011371;-63
2023/01/23 03:32:15;;;;;;;6.20;2.70;;;;;;;1.06;67.58;100913.38;78060;1299;3053193;-64
2023/01/23 03:34:42;;;;;;;5.60;2.50;;;;;;;0.97;67.39;100914.92;79322;1300;3013244;-63
2023/01/23 03:37:10;;;;;;;6.60;2.50;;;;;;;1.06;67.77;100912.53;79262;1300;3011905;-63
2023/01/23 03:42:26;;;;;;;9.10;3.20;;;;;;;0.96;67.25;100916.64;77993;1300;3049401;-63
2023/01/23 03:44:53;;;;;;;8.10;2.60;;;;;;;1.01;67.61;100920.64;79293;1297;3012851;-63
2023/01/23 03:47:25;;;;;;;8.70;2.40;;;;;;;1.07;67.55;100917.02;78723;1297;3012825;-64
2023/01/23 03:49:52;;;;;;;4.60;2.10;;;;;;;1.08;67.31;100923.91;79246;1295;3013151;-63
2023/01/23 03:52:18;;;;;;;7.30;3.00;;;;;;;1.05;67.17;100924.09;79234;1299;3013190;-64
2023/01/23 03:54:46;;;;;;;7.50;2.80;;;;;;;1.04;67.44;100921.66;78100;1300;3051676;-64
2023/01/23 03:57:14;;;;;;;9.10;3.80;;;;;;;0.98;67.44;100926.15;79314;1298;3013596;-64
2023/01/23 04:00:03;;;;;;;6.60;3.10;;;;;;;0.89;67.56;100922.67;78004;1300;3053819;-64
2023/01/23 04:02:41;;;;;;;8.00;2.60;;;;;;;0.94;67.89;100921.15;78026;1299;3049716;-63
2023/01/23 04:05:09;;;;;;;5.90;2.30;;;;;;;0.98;67.51;100925.98;79374;1300;3013027;-65
2023/01/23 04:07:37;;;;;;;7.30;2.90;;;;;;;1.05;67.67;100923.91;79199;1296;3012295;-63
2023/01/23 04:10:05;;;;;;;6.40;3.20;;;;;;;0.93;67.41;100923.20;78073;1300;3051263;-63
2023/01/23 04:12:32;;;;;;;8.90;3.00;;;;;;;0.83;67.51;100928.02;79345;1295;3012960;-64
2023/01/23 04:15:00;;;;;;;6.50;2.90;;;;;;;0.80;67.48;100928.00;79278;1295;3011589;-65
2023/01/23 04:17:28;;;;;;;11.50;3.00;;;;;;;0.77;67.62;100931.27;77977;1299;3050280;-63
2023/01/23 04:19:55;;;;;;;6.70;2.80;;;;;;;0.62;68.08;100933.63;79213;1300;3021251;-63
2023/01/23 04:22:22;;;;;;;8.20;3.60;;;;;;;0.63;67.59;100932.94;79198;1300;3011589;-63
2023/01/23 04:24:51;;;;;;;7.40;2.80;;;;;;;0.64;67.57;100934.51;78023;1297;3051373;-63
2023/01/23 04:27:18;;;;;;;5.70;2.60;;;;;;;0.69;67.60;100931.23;79279;1298;3013632;-63
2023/01/23 04:29:46;;;;;;;11.30;3.10;;;;;;;0.66;67.77;100931.23;79229;1297;3013683;-63
2023/01/23 04:32:15;;;;;;;9.00;3.50;;;;;;;0.76;67.31;100930.23;77985;1300;3050288;-64
2023/01/23 04:34:45;;;;;;;7.00;3.40;;;;;;;0.74;67.01;100933.84;79188;1299;3013281;-63
2023/01/23 04:37:13;;;;;;;6.70;3.70;;;;;;;0.64;67.19;100935.19;78690;1297;3011957;-63
2023/01/23 04:39:40;;;;;;;7.60;3.50;;;;;;;0.42;67.76;100942.69;79243;1300;3013379;-63
2023/01/23 04:42:07;;;;;;;7.60;3.40;;;;;;;0.42;67.83;100944.41;79245;1299;3012780;-63
2023/01/23 04:44:52;;;;;;;16.80;3.80;;;;;;;0.39;68.22;100943.19;78053;1300;3049977;-63
2023/01/23 04:47:52;;;;;;;12.00;3.40;;;;;;;0.30;68.32;100948.84;77955;1300;3053089;-63
2023/01/23 04:50:21;;;;;;;11.40;3.80;;;;;;;0.33;67.83;100952.29;79308;1300;3012975;-63
2023/01/23 04:52:48;;;;;;;9.30;3.30;;;;;;;0.18;68.19;100954.46;79256;1299;3011713;-62
2023/01/23 04:55:16;;;;;;;9.20;3.60;;;;;;;0.20;68.10;100954.46;78189;1295;3069104;-62
2023/01/23 04:57:43;;;;;;;12.60;4.10;;;;;;;0.14;68.88;100959.09;79260;1297;3013473;-61
2023/01/23 05:00:17;;;;;;;11.30;3.30;;;;;;;0.07;68.86;100956.46;78077;1300;3048225;-63
2023/01/23 05:02:47;;;;;;;9.00;3.60;;;;;;;0.00;69.05;100958.98;79258;1300;3013461;-62
2023/01/23 05:05:19;;;;;;;10.60;3.70;;;;;;;-0.01;68.63;100958.83;78094;1300;3051793;-63
2023/01/23 05:07:47;;;;;;;12.60;4.60;;;;;;;-0.00;69.14;100962.10;79285;1299;3012914;-63
2023/01/23 05:10:16;;;;;;;8.20;3.80;;;;;;;-0.15;69.14;100963.89;78001;1300;3069016;-63
2023/01/23 05:12:43;;;;;;;9.20;4.40;;;;;;;-0.19;69.39;100971.78;79278;1295;3014625;-65
2023/01/23 05:15:09;;;;;;;17.20;4.30;;;;;;;-0.18;69.58;100971.45;79337;1298;3011577;-62
2023/01/23 05:17:39;;;;;;;8.90;4.00;;;;;;;-0.24;69.93;100976.39;77991;1299;3053119;-62
2023/01/23 05:20:07;;;;;;;15.90;4.30;;;;;;;-0.29;70.26;100981.52;79192;1300;3012983;-63
2023/01/23 05:22:50;;;;;;;12.30;4.50;;;;;;;-0.29;70.79;100982.73;78020;1300;3052137;-64
2023/01/23 05:25:21;;;;;;;13.80;4.90;;;;;;;-0.33;70.83;100985.45;78049;1299;3069030;-62
2023/01/23 05:27:48;;;;;;;14.30;5.60;;;;;;;-0.56;71.93;100991.10;79295;1294;3013767;-63
2023/01/23 05:30:20;;;;;;;12.20;5.20;;;;;;;-0.62;72.17;100992.94;78133;1294;3027650;-63
2023/01/23 05:32:47;;;;;;;13.00;5.40;;;;;;;-0.68;72.57;100995.29;79405;1296;3011778;-63
2023/01/23 05:35:18;;;;;;;13.70;4.70;;;;;;;-0.68;72.64;101002.17;76148;1295;3053438;-67
2023/01/23 05:37:50;;;;;;;11.00;4.80;;;;;;;-0.68;72.69;101002.34;79323;1300;3013052;-62
2023/01/23 05:40:19;;;;;;;10.60;4.80;;;;;;;-0.67;72.85;101006.66;78235;1299;3051733;-64
2023/01/23 05:43:05;;;;;;;10.60;4.80;;;;;;;-0.70;73.03;101009.73;78156;1299;3069705;-63
2023/01/23 05:45:52;;;;;;;16.90;6.20;;;;;;;-0.81;73.50;101019.24;78126;1299;3051767;-63
2023/01/23 05:48:28;;;;;;;17.60;5.70;;;;;;;-0.86;73.86;101024.70;78106;1300;3056508;-64
2023/01/23 05:50:55;;;;;;;14.90;5.90;;;;;;;-0.79;73.94;101023.23;79430;1294;3013103;-60
2023/01/23 05:53:22;;;;;;;13.10;5.50;;;;;;;-0.83;74.01;101024.39;79577;1296;3013516;-60
2023/01/23 05:55:51;;;;;;;20.50;6.40;;;;;;;-0.83;73.93;101027.48;78018;1299;3052998;-62
2023/01/23 05:58:19;;;;;;;18.60;6.30;;;;;;;-0.91;74.43;101029.80;79494;1298;3014970;-60
2023/01/23 06:01:01;;;;;;;11.50;5.60;;;;;;;-0.90;74.95;101035.49;78045;1299;3051648;-61
2023/01/23 06:04:07;;;;;;;10.60;4.90;;;;;;;-0.80;74.72;101039.40;78135;1299;3057212;-61
2023/01/23 06:06:44;;;;;;;16.30;6.00;;;;;;;-0.88;74.95;101043.26;78132;1298;3049443;-61
2023/01/23 06:09:11;;;;;;;16.10;5.90;;;;;;;-0.84;75.55;101045.19;79278;1300;3012964;-60
2023/01/23 06:11:38;;;;;;;15.30;6.50;;;;;;;-0.73;74.91;101041.19;79252;1298;3011693;-60
2023/01/23 06:14:06;;;;;;;16.20;6.90;;;;;;;-0.80;75.21;101045.58;78114;1300;3028891;-60
2023/01/23 06:16:34;;;;;;;18.40;6.30;;;;;;;-0.74;75.17;101043.93;79280;1299;3014078;-60
2023/01/23 06:19:01;;;;;;;22.40;6.60;;;;;;;-0.79;75.49;101046.45;79284;1296;3011559;-60
2023/01/23 06:21:30;;;;;;;16.80;5.90;;;;;;;-0.67;75.76;101047.44;78188;1299;3052093;-60
2023/01/23 06:24:00;;;;;;;13.60;6.60;;;;;;;-0.60;75.46;101050.95;79337;1294;3013497;-60
2023/01/23 06:26:28;;;;;;;18.40;6.60;;;;;;;-0.61;75.46;101055.08;77999;1299;3052549;-60
2023/01/23 06:28:56;;;;;;;18.40;6.30;;;;;;;-0.55;75.33;101049.64;79265;1299;3013818;-60
2023/01/23 06:31:23;;;;;;;13.00;5.80;;;;;;;-0.54;75.54;101050.33;79289;1299;3013000;-60
2023/01/23 06:33:54;;;;;;;16.30;6.40;;;;;;;-0.55;75.68;101052.55;78001;1299;3057399;-60
2023/01/23 06:36:25;;;;;;;21.20;6.50;;;;;;;-0.60;76.13;101054.40;79306;1297;3011729;-60
2023/01/23 06:38:54;;;;;;;17.70;6.20;;;;;;;-0.54;76.00;101047.76;78111;1294;3052547;-63
2023/01/23 06:41:24;;;;;;;19.70;6.70;;;;;;;-0.53;76.20;101048.96;79490;1298;3013022;-65
2023/01/23 06:43:55;;;;;;;15.00;5.90;;;;;;;-0.46;76.20;101054.37;78021;1299;3051739;-63
2023/01/23 06:46:23;;;;;;;18.60;6.00;;;;;;;0.09;74.95;101052.78;79417;1300;3013210;-63
2023/01/23 06:48:53;;;;;;;15.30;4.40;;;;;;;0.83;72.47;101055.48;78187;1294;3027801;-63
2023/01/23 06:51:20;;;;;;;10.90;4.60;;;;;;;1.18;70.99;101054.95;79300;1299;3012821;-62
2023/01/23 06:53:47;;;;;;;13.70;5.70;;;;;;;1.13;70.63;101058.88;79411;1296;3013402;-63
2023/01/23 06:56:16;;;;;;;21.30;5.50;;;;;;;0.97;71.05;101060.90;78221;1295;3053190;-63
2023/01/23 06:58:47;;;;;;;15.80;5.60;;;;;;;0.81;71.63;101059.27;79404;1308;3014739;-66
2023/01/23 07:01:25;;;;;;;16.90;6.30;;;;;;;0.70;72.06;101066.13;78265;1300;3052139;-64
2023/01/23 07:04:16;;;;;;;17.40;5.80;;;;;;;0.58;72.52;101069.67;78107;1306;3068390;-64
2023/01/23 07:06:44;;;;;;;12.00;4.60;;;;;;;0.49;73.04;101072.20;79470;1296;3013314;-63
2023/01/23 07:09:11;;;;;;;17.40;5.70;;;;;;;0.38;73.59;101075.92;79349;1294;3011741;-64
2023/01/23 07:11:40;;;;;;;16.50;5.60;;;;;;;0.29;74.40;101077.94;78351;1299;3053222;-63
2023/01/23 07:14:07;;;;;;;16.80;6.00;;;;;;;0.31;74.25;101081.23;79341;1300;3013567;-64
2023/01/23 07:16:35;;;;;;;20.60;6.30;;;;;;;0.25;74.67;101083.77;79283;1299;3013011;-64
2023/01/23 07:19:04;;;;;;;13.70;5.90;;;;;;;0.26;74.65;101086.01;78148;1297;3069226;-64
2023/01/23 07:21:32;;;;;;;13.80;5.70;;;;;;;0.16;75.04;101090.23;79291;1298;3013005;-63
2023/01/23 07:24:01;;;;;;;18.50;6.10;;;;;;;0.11;75.69;101094.16;78758;1298;3012140;-65
2023/01/23 07:26:28;;;;;;;18.60;6.90;;;;;;;0.05;75.89;101096.02;79408;1295;3013715;-65
2023/01/23 07:28:55;;;;;;;17.50;6.30;;;;;;;0.00;76.63;101092.69;79409;1296;3011558;-65
2023/01/23 07:31:23;;;;;;;14.10;6.10;;;;;;;0.08;76.63;101097.58;78214;1299;3028030;-63
2023/01/23 07:33:50;;;;;;;17.00;5.50;;;;;;;0.06;76.72;101098.77;79548;1299;3018442;-62
2023/01/23 07:36:17;;;;;;;16.00;6.00;;;;;;;0.07;76.91;101099.98;79263;1296;3011371;-63
2023/01/23 07:38:45;;;;;;;17.10;5.70;;;;;;;-0.01;77.18;101102.34;78052;1298;3054327;-63
2023/01/23 07:41:13;;;;;;;16.30;6.20;;;;;;;-0.01;77.63;101109.58;79311;1297;3014266;-63
2023/01/23 07:43:40;;;;;;;19.80;6.50;;;;;;;-0.07;78.19;101110.37;79206;1296;3011865;-63
2023/01/23 07:46:08;;;;;;;21.10;6.20;;;;;;;-0.19;78.63;101116.80;78230;1296;3052639;-64
2023/01/23 07:48:36;;;;;;;14.20;4.70;;;;;;;0.46;77.98;101120.63;82052;1297;3012567;-65
2023/01/23 07:51:03;;;;;;;10.30;3.90;;;;;;;1.30;74.50;101123.88;82002;1295;3011017;-65
2023/01/23 07:53:31;;;;;;;12.70;4.60;;;;;;;1.80;73.60;101120.55;80778;1294;3056016;-63
2023/01/23 07:55:57;;;;;;;16.40;5.50;;;;;;;1.80;72.15;101122.11;82054;1294;3012718;-63
2023/01/23 07:58:24;;;;;;;11.50;5.10;;;;;;;1.75;72.35;101126.77;82022;1294;3011399;-64
2023/01/23 08:00:52;;;;;;;12.90;5.60;;;;;;;1.42;72.71;101127.02;80754;1297;3026294;-63
2023/01/23 08:03:19;;;;;;;16.80;6.40;;;;;;;1.23;73.34;101131.79;82026;1297;3012321;-62
2023/01/23 08:05:49;;;;;;;17.90;6.90;;;;;;;1.09;74.20;101134.13;82020;1295;3011320;-63
2023/01/23 08:08:17;;;;;;;12.60;6.10;;;;;;;0.92;74.73;101131.96;80741;1296;3056264;-63
2023/01/23 08:10:44;;;;;;;23.40;6.80;;;;;;;0.81;74.99;101135.86;82030;1295;3012709;-63
2023/01/23 08:13:11;;;;;;;18.60;6.60;;;;;;;0.88;74.69;101138.16;81992;1295;3011384;-63
2023/01/23 08:15:41;;;;;;;10.20;5.00;;;;;;;0.74;74.90;101137.73;80757;1297;3053351;-63
2023/01/23 08:18:08;;;;;;;15.80;6.30;;;;;;;0.68;75.21;101137.52;82002;1294;3013002;-64
2023/01/23 08:20:34;;;;;;;16.10;6.20;;;;;;;0.61;75.34;101136.27;82010;1296;3011235;-63
2023/01/23 08:23:03;;;;;;;12.80;6.00;;;;;;;0.65;75.08;101134.58;80747;1296;3026002;-65
2023/01/23 08:25:30;;;;;;;34.90;7.00;;;;;;;0.56;75.49;101135.20;82011;1299;3012450;-64
2023/01/23 08:27:57;;;;;;;15.80;6.60;;;;;;;0.55;75.42;101134.33;82002;1295;3011412;-63
2023/01/23 08:30:25;;;;;;;19.60;7.40;;;;;;;0.56;75.54;101134.68;80794;1297;3027078;-63
2023/01/23 08:32:52;;;;;;;20.30;8.10;;;;;;;0.45;75.93;101142.18;82023;1295;3018050;-63
2023/01/23 08:35:18;;;;;;;20.20;7.70;;;;;;;0.42;76.26;101140.27;82029;1294;3011307;-60
2023/01/23 08:37:46;;;;;;;17.50;7.40;;;;;;;0.37;76.26;101146.42;80784;1294;3026612;-61
2023/01/23 08:40:13;;;;;;;15.00;7.10;;;;;;;0.46;76.36;101141.67;81998;1295;3012302;-61
2023/01/23 08:42:39;;;;;;;21.90;8.10;;;;;;;0.55;76.28;101138.98;82021;1294;3011327;-63
2023/01/23 08:45:07;;;;;;;19.40;8.20;;;;;;;0.55;76.00;101141.56;80762;1294;3026119;-61
2023/01/23 08:47:35;;;;;;;16.30;7.20;;;;;;;0.63;75.80;101139.73;81996;1297;3013053;-61
2023/01/23 08:50:02;;;;;;;19.90;7.60;;;;;;;0.71;75.36;101139.09;81967;1296;3011406;-62
2023/01/23 08:52:30;;;;;;;15.40;7.00;;;;;;;0.74;75.11;101137.21;80733;1297;3055831;-61
2023/01/23 08:54:57;;;;;;;16.40;7.20;;;;;;;0.75;74.84;101139.11;81986;1296;3012716;-63
2023/01/23 08:57:23;;;;;;;19.70;7.50;;;;;;;0.62;75.11;101140.56;82010;1294;3011473;-61
2023/01/23 08:59:51;;;;;;;17.40;7.90;;;;;;;0.69;75.33;101142.52;80725;1299;3025891;-61
2023/01/23 09:02:20;;;;;;;20.60;7.30;;;;;;;0.76;74.79;101143.43;82007;1297;3012313;-62
2023/01/23 09:04:50;;;;;;;19.30;9.00;;;;;;;0.65;74.87;101142.16;81440;1296;3011385;-61
2023/01/23 09:07:16;;;;;;;17.40;8.00;;;;;;;0.61;75.48;101146.78;82011;1295;3019183;-61
2023/01/23 09:09:49;;;;;;;18.20;7.70;;;;;;;0.67;75.59;101146.48;81437;1295;3011321;-60
2023/01/23 09:12:15;;;;;;;19.10;8.10;;;;;;;0.63;75.96;101142.48;82019;1294;3012606;-59
2023/01/23 09:14:42;;;;;;;21.60;9.50;;;;;;;0.63;75.98;101148.34;81979;1294;3011145;-61
2023/01/23 09:17:10;;;;;;;19.60;7.70;;;;;;;0.58;76.39;101149.52;80728;1297;3026413;-60
2023/01/23 09:19:36;;;;;;;22.20;8.70;;;;;;;0.62;76.14;101150.92;82039;1294;3018705;-60
2023/01/23 09:22:03;;;;;;;21.10;9.60;;;;;;;0.50;76.25;101151.35;82020;1294;3011453;-60
2023/01/23 09:24:31;;;;;;;23.10;8.70;;;;;;;0.49;76.70;101151.87;80724;1295;3026667;-61
2023/01/23 09:26:57;;;;;;;19.60;8.40;;;;;;;0.41;76.79;101155.77;81971;1295;3012403;-59
2023/01/23 09:29:24;;;;;;;24.40;9.30;;;;;;;0.36;77.01;101164.34;82008;1296;3011364;-61
2023/01/23 09:31:52;;;;;;;21.90;8.80;;;;;;;0.48;77.05;101156.51;80770;1294;3024794;-61
2023/01/23 09:34:18;;;;;;;21.90;8.70;;;;;;;0.46;76.88;101157.70;82048;1295;3018053;-61
2023/01/23 09:36:45;;;;;;;24.90;9.40;;;;;;;0.55;76.58;101149.32;82009;1294;3011070;-61
2023/01/23 09:39:12;;;;;;;25.80;10.80;;;;;;;0.61;76.11;101146.42;80778;1294;3025753;-61
2023/01/23 09:41:39;;;;;;;28.30;11.30;;;;;;;0.65;76.12;101150.08;81993;1294;3013057;-60
2023/01/23 09:44:19;;;;;;;23.80;10.40;;;;;;;0.63;76.29;101147.64;81890;1294;3011686;-61
2023/01/23 09:46:52;;;;;;;25.40;10.50;;;;;;;0.68;76.34;101149.59;80678;1294;3052994;-61
2023/01/23 09:50:06;;;;;;;25.80;11.10;;;;;;;0.55;76.56;101150.19;82057;1294;3011190;-61
2023/01/23 09:52:40;;;;;;;27.30;11.50;;;;;;;0.46;76.77;101151.83;80720;1295;3068863;-61
2023/01/23 09:55:17;;;;;;;19.50;10.30;;;;;;;0.50;76.08;101150.31;81390;1297;3011013;-61
2023/01/23 09:57:49;;;;;;;22.20;10.20;;;;;;;0.55;76.09;101156.05;80705;1296;3051321;-61
2023/01/23 10:00:28;;;;;;;22.50;11.00;;;;;;;0.58;75.65;101153.31;81954;1294;3011112;-60
2023/01/23 10:03:01;;;;;;;19.30;9.70;;;;;;;0.43;75.49;101153.72;80711;1294;3050068;-62
2023/01/23 10:05:51;;;;;;;23.80;9.60;;;;;;;0.50;75.47;101150.50;81930;1294;3011206;-61
2023/01/23 10:08:46;;;;;;;24.20;10.50;;;;;;;0.53;75.14;101144.13;80712;1294;3050071;-61
2023/01/23 10:11:36;;;;;;;20.00;8.40;;;;;;;0.47;75.47;101146.16;80713;1296;3052066;-61
2023/01/23 10:14:36;;;;;;;17.90;8.90;;;;;;;0.41;75.24;101138.19;80789;1294;3052308;-64
2023/01/23 10:17:32;;;;;;;18.60;8.30;;;;;;;0.39;75.02;101141.61;80678;1296;3069384;-61
2023/01/23 10:20:15;;;;;;;16.10;7.70;;;;;;;0.53;74.99;101135.35;80704;1294;3050988;-60
2023/01/23 10:22:50;;;;;;;18.20;7.70;;;;;;;0.52;74.69;101137.23;80720;1294;3055909;-61
2023/01/23 10:25:25;;;;;;;18.30;7.50;;;;;;;0.48;74.93;101140.14;81912;1296;3011700;-61
2023/01/23 10:27:55;;;;;;;14.60;7.10;;;;;;;0.60;75.03;101138.49;80761;1294;3052912;-61
2023/01/23 10:30:33;;;;;;;13.70;6.30;;;;;;;0.52;75.21;101132.42;82005;1294;3011181;-61
2023/01/23 10:33:12;;;;;;;18.50;7.50;;;;;;;0.60;75.15;101129.70;80669;1297;3053029;-61
2023/01/23 10:35:46;;;;;;;20.10;7.20;;;;;;;0.64;74.47;101123.69;80721;1297;3051157;-61
2023/01/23 10:38:25;;;;;;;13.50;7.90;;;;;;;0.67;74.34;101121.13;82068;1291;3011404;-60
2023/01/23 10:43:43;;;;;;;19.10;7.40;;;;;;;0.62;74.00;101123.67;80988;1290;3056353;-60
2023/01/23 10:46:14;;;;;;;16.10;7.80;;;;;;;0.58;74.11;101124.34;82183;1291;3011123;-61
2023/01/23 10:48:48;;;;;;;21.30;9.10;;;;;;;0.56;73.53;101124.67;81005;1290;3051469;-60
2023/01/23 10:51:45;;;;;;;22.00;9.80;;;;;;;0.44;73.01;101124.41;81656;1291;3011418;-61
2023/01/23 10:54:23;;;;;;;17.20;9.60;;;;;;;0.39;71.35;101120.23;80930;1290;3050136;-61
2023/01/23 10:56:52;;;;;;;17.60;9.80;;;;;;;0.49;70.83;101120.98;80944;1294;3051807;-60
2023/01/23 10:59:32;;;;;;;20.10;10.50;;;;;;;0.42;69.76;101118.89;82230;1290;3011332;-60
2023/01/23 11:02:12;;;;;;;18.00;10.40;;;;;;;0.36;70.29;101118.14;80917;1291;3068775;-61
2023/01/23 11:04:42;;;;;;;19.10;10.60;;;;;;;0.41;70.63;101118.36;80943;1295;3051392;-61
2023/01/23 11:07:11;;;;;;;16.70;10.20;;;;;;;0.37;71.12;101116.95;82275;1290;3012559;-61
2023/01/23 11:09:51;;;;;;;17.80;10.90;;;;;;;0.40;71.13;101116.81;80934;1290;3052121;-61
2023/01/23 11:12:22;;;;;;;18.80;10.10;;;;;;;0.37;70.90;101116.59;80968;1291;3049665;-61
2023/01/23 11:14:48;;;;;;;18.10;10.40;;;;;;;0.41;71.54;101116.30;82265;1290;3011391;-62
2023/01/23 11:17:24;;;;;;;19.00;11.20;;;;;;;0.48;71.02;101119.45;81687;1290;3011328;-62
2023/01/23 11:19:53;;;;;;;18.20;11.10;;;;;;;0.45;71.33;101116.48;82186;1291;3011511;-61
2023/01/23 11:22:37;;;;;;;21.50;10.70;;;;;;;0.41;71.67;101115.25;80972;1291;3051529;-61
2023/01/23 11:25:29;;;;;;;16.00;10.30;;;;;;;0.41;71.72;101115.95;80947;1291;3057144;-61
2023/01/23 11:27:59;;;;;;;17.30;9.70;;;;;;;0.41;71.33;101111.64;80986;1290;3048335;-59
2023/01/23 11:30:38;;;;;;;18.10;9.50;;;;;;;0.39;70.97;101113.52;82247;1290;3012737;-61
2023/01/23 11:33:24;;;;;;;17.20;10.10;;;;;;;0.44;71.22;101115.61;80975;1291;3049744;-61
2023/01/23 11:35:59;;;;;;;19.00;9.70;;;;;;;0.37;70.71;101119.18;80997;1290;3052015;-60